Time;durP1;ratioP1;P1;durP2;ratioP2;P2;SDS_P1;SDS_P2;PMS_P1;PMS_P2;Temp;Humidity;BMP_temperature;BMP_pressure;BME280_temperature;BME280_humidity;BME280_pressure;Samples;Min_cycle;Max_cycle;Signal;HPM_P1;HPM_P2
2022/11/19 00:01:09;;;;;;;12.83;7.30;;;5.00;99.90;;;;;;5052978;28;20021;-58
2022/11/19 00:03:36;;;;;;;10.27;7.30;;;4.90;99.90;;;;;;5053362;28;20107;-56
2022/11/19 00:06:13;;;;;;;10.40;6.60;;;5.00;99.90;;;;;;5052947;28;20090;-56
2022/11/19 00:08:39;;;;;;;9.20;6.10;;;4.90;99.90;;;;;;5052692;28;20406;-55
2022/11/19 00:11:11;;;;;;;8.63;6.27;;;4.90;99.90;;;;;;5052856;28;20025;-54
2022/11/19 00:13:38;;;;;;;8.90;5.77;;;5.00;99.90;;;;;;5052553;28;20033;-57
2022/11/19 00:16:09;;;;;;;9.33;5.70;;;5.00;99.90;;;;;;5052638;28;20158;-56
2022/11/19 00:18:35;;;;;;;7.83;5.50;;;4.90;99.90;;;;;;5052302;28;20037;-57
2022/11/19 00:21:12;;;;;;;9.80;5.67;;;4.80;99.90;;;;;;5052642;28;20108;-55
2022/11/19 00:23:38;;;;;;;7.77;5.10;;;4.80;99.90;;;;;;5051375;28;20025;-54
2022/11/19 00:26:06;;;;;;;7.73;5.47;;;4.70;99.90;;;;;;5052643;28;20111;-55
2022/11/19 00:28:31;;;;;;;9.00;5.43;;;4.60;99.90;;;;;;5052028;28;20033;-54
2022/11/19 00:31:13;;;;;;;9.67;5.80;;;4.60;99.90;;;;;;5052460;28;20501;-56
2022/11/19 00:33:40;;;;;;;9.73;6.63;;;4.70;99.90;;;;;;5052301;28;20033;-57
2022/11/19 00:36:09;;;;;;;10.00;6.53;;;4.70;99.90;;;;;;5052876;28;20175;-57
2022/11/19 00:38:34;;;;;;;10.90;6.60;;;4.70;99.90;;;;;;5051956;28;20409;-54
2022/11/19 00:41:00;;;;;;;13.20;7.73;;;4.60;99.90;;;;;;5052694;28;20021;-54
2022/11/19 00:46:15;;;;;;;12.47;8.23;;;4.60;99.90;;;;;;5052245;28;20039;-55
2022/11/19 00:48:41;;;;;;;16.13;9.33;;;4.60;99.90;;;;;;5051789;28;20029;-54
2022/11/19 00:51:07;;;;;;;13.63;9.97;;;4.60;99.90;;;;;;5052201;28;20040;-55
2022/11/19 00:53:33;;;;;;;14.30;10.73;;;4.50;99.90;;;;;;5051867;28;20047;-55
2022/11/19 00:56:04;;;;;;;14.60;10.03;;;4.40;99.90;;;;;;5052408;28;20037;-56
2022/11/19 00:58:30;;;;;;;16.33;10.57;;;4.40;99.90;;;;;;5051584;28;20036;-55
2022/11/19 01:00:56;;;;;;;15.27;9.97;;;4.40;99.90;;;;;;5051846;28;20086;-56
2022/11/19 01:03:23;;;;;;;12.37;8.50;;;4.40;99.90;;;;;;5050225;28;20045;-57
2022/11/19 01:05:48;;;;;;;12.73;8.83;;;4.40;99.90;;;;;;5051833;28;20501;-57
2022/11/19 01:08:14;;;;;;;10.50;8.20;;;4.40;99.90;;;;;;5051528;28;20163;-57
2022/11/19 01:10:41;;;;;;;10.77;8.10;;;4.40;99.90;;;;;;5051556;28;20036;-56
2022/11/19 01:15:51;;;;;;;11.20;7.73;;;4.40;99.90;;;;;;5051693;28;20043;-56
2022/11/19 01:18:17;;;;;;;11.60;8.10;;;4.40;99.90;;;;;;5051448;28;20029;-54
2022/11/19 01:20:43;;;;;;;11.70;8.37;;;4.30;99.90;;;;;;5051133;28;20559;-55
2022/11/19 01:23:09;;;;;;;11.43;7.87;;;4.30;99.90;;;;;;5051463;28;20033;-57
2022/11/19 01:25:35;;;;;;;12.63;8.23;;;4.30;99.90;;;;;;5051666;28;20037;-55
2022/11/19 01:28:02;;;;;;;13.00;8.40;;;4.20;99.90;;;;;;5051334;28;20033;-55
2022/11/19 01:30:27;;;;;;;13.57;8.53;;;4.10;99.90;;;;;;5051195;28;20103;-55
2022/11/19 01:32:53;;;;;;;13.10;8.67;;;4.00;99.90;;;;;;5051131;28;20513;-54
2022/11/19 01:35:19;;;;;;;12.50;8.37;;;4.00;99.90;;;;;;5051207;28;20033;-55
2022/11/19 01:37:44;;;;;;;12.27;8.20;;;4.00;99.90;;;;;;5051216;28;20029;-55
2022/11/19 01:40:11;;;;;;;13.63;8.87;;;4.00;99.90;;;;;;5050940;28;20025;-55
2022/11/19 01:42:48;;;;;;;13.53;8.60;;;4.00;99.90;;;;;;5051043;28;20424;-55
2022/11/19 01:45:37;;;;;;;13.10;8.47;;;4.00;99.90;;;;;;5051216;28;20326;-56
2022/11/19 01:48:20;;;;;;;12.60;7.88;;;3.90;99.90;;;;;;5050934;28;20503;-55
2022/11/19 01:51:00;;;;;;;13.93;8.90;;;3.80;99.90;;;;;;5050917;28;20048;-55
2022/11/19 01:53:30;;;;;;;14.93;9.30;;;3.80;99.90;;;;;;5051247;28;20033;-56
2022/11/19 01:56:02;;;;;;;14.67;9.27;;;3.80;99.90;;;;;;5050953;28;20029;-56
2022/11/19 01:58:32;;;;;;;16.40;9.70;;;3.70;99.90;;;;;;5050923;28;20075;-57
2022/11/19 02:00:59;;;;;;;16.17;9.10;;;3.70;99.90;;;;;;5051150;28;20021;-56
2022/11/19 02:03:26;;;;;;;15.87;9.43;;;3.80;99.90;;;;;;5050952;28;20063;-56
2022/11/19 02:05:53;;;;;;;15.80;9.63;;;3.70;99.90;;;;;;5050756;28;20075;-57
2022/11/19 02:08:34;;;;;;;14.20;9.03;;;3.70;99.90;;;;;;5050522;28;20520;-55
2022/11/19 02:11:02;;;;;;;15.53;9.60;;;3.70;99.90;;;;;;5050837;28;20102;-55
2022/11/19 02:13:37;;;;;;;15.87;9.90;;;3.70;99.90;;;;;;5050382;28;20554;-55
2022/11/19 02:16:11;;;;;;;17.90;10.70;;;3.70;99.90;;;;;;5050053;28;20557;-56
2022/11/19 02:19:30;;;;;;;16.97;10.60;;;3.60;99.90;;;;;;5050311;28;20025;-54
2022/11/19 02:22:29;;;;;;;21.17;12.68;;;3.60;99.90;;;;;;5008380;28;20026;-53
2022/11/19 02:25:13;;;;;;;20.45;12.35;;;3.60;99.90;;;;;;5036294;28;20041;-55
2022/11/19 02:28:00;;;;;;;19.60;12.03;;;3.60;99.90;;;;;;5050338;28;20033;-55
2022/11/19 02:30:32;;;;;;;23.37;13.53;;;3.60;99.90;;;;;;5050181;28;20032;-55
2022/11/19 02:33:03;;;;;;;21.17;12.63;;;3.50;99.90;;;;;;5050329;28;20033;-55
2022/11/19 02:35:46;;;;;;;24.40;13.80;;;3.50;99.90;;;;;;5050543;28;20032;-56
2022/11/19 02:38:26;;;;;;;22.90;13.80;;;3.50;99.90;;;;;;5048972;28;20037;-57
2022/11/19 02:41:32;;;;;;;23.83;13.70;;;3.40;99.90;;;;;;5050214;28;20108;-55
2022/11/19 02:44:57;;;;;;;21.43;12.50;;;3.50;99.90;;;;;;5049994;28;20037;-53
2022/11/19 02:46:49;;;;;;;22.53;13.13;;;3.40;99.90;;;;;;5050092;28;20037;-57
2022/11/19 02:49:17;;;;;;;28.90;13.32;;;3.40;99.90;;;;;;5050197;28;20128;-56
2022/11/19 02:51:43;;;;;;;23.73;13.48;;;3.50;99.90;;;;;;5050283;28;20036;-54
2022/11/19 02:54:09;;;;;;;24.30;13.80;;;3.50;99.90;;;;;;5050196;28;20033;-54
2022/11/19 02:56:46;;;;;;;26.20;15.13;;;3.50;99.90;;;;;;5049942;28;20033;-56
2022/11/19 03:04:42;;;;;;;28.63;14.57;;;3.40;99.90;;;;;;5049950;28;20025;-55
2022/11/19 03:07:11;;;;;;;27.33;15.43;;;3.30;99.90;;;;;;5050217;28;20087;-54
2022/11/19 03:09:41;;;;;;;28.65;15.82;;;3.30;99.90;;;;;;5049997;28;20037;-56
2022/11/19 03:12:32;;;;;;;29.97;16.13;;;3.30;99.90;;;;;;5050097;28;20037;-55
2022/11/19 03:18:17;;;;;;;28.13;15.70;;;3.20;99.90;;;;;;5049820;28;20478;-54
2022/11/19 03:20:53;;;;;;;30.97;17.67;;;3.20;99.90;;;;;;5049849;28;20033;-54
2022/11/19 03:23:33;;;;;;;31.67;17.73;;;3.10;99.90;;;;;;5049936;28;20040;-55
2022/11/19 03:26:05;;;;;;;33.63;17.53;;;3.10;99.90;;;;;;5050733;28;20032;-51
2022/11/19 03:28:37;;;;;;;33.33;18.23;;;3.00;99.90;;;;;;5053777;28;20370;-56
2022/11/19 03:31:05;;;;;;;34.30;17.50;;;3.00;99.90;;;;;;5053762;28;20452;-54
2022/11/19 03:33:41;;;;;;;35.00;17.60;;;3.00;99.90;;;;;;5053571;28;20434;-56
2022/11/19 03:36:15;;;;;;;34.73;18.57;;;3.00;99.90;;;;;;5053517;28;20037;-53
2022/11/19 03:38:44;;;;;;;35.20;18.23;;;3.00;99.90;;;;;;5053575;28;20409;-56
2022/11/19 03:41:14;;;;;;;32.47;16.35;;;2.90;99.90;;;;;;5053499;28;20029;-54
2022/11/19 03:43:42;;;;;;;36.37;18.40;;;2.90;99.90;;;;;;5053304;28;20076;-55
2022/11/19 03:46:13;;;;;;;31.40;16.33;;;2.90;99.90;;;;;;5053349;28;20116;-55
2022/11/19 03:48:39;;;;;;;33.40;17.73;;;2.90;99.90;;;;;;5052841;28;20047;-51
2022/11/19 03:51:20;;;;;;;33.73;16.33;;;2.90;99.90;;;;;;5053283;28;20133;-55
2022/11/19 03:53:46;;;;;;;34.70;17.13;;;2.90;99.90;;;;;;5053252;28;20029;-54
2022/11/19 03:56:17;;;;;;;32.03;17.50;;;2.90;99.90;;;;;;5053106;28;20033;-56
2022/11/19 03:58:44;;;;;;;35.93;18.90;;;3.00;99.90;;;;;;5052884;28;20017;-55
2022/11/19 04:01:10;;;;;;;36.00;18.03;;;2.90;99.90;;;;;;5053027;28;20021;-56
2022/11/19 04:03:37;;;;;;;34.03;15.00;;;2.90;99.90;;;;;;5053225;28;20029;-56
2022/11/19 04:06:03;;;;;;;37.70;18.10;;;2.90;99.90;;;;;;5052969;28;20037;-56
2022/11/19 04:08:30;;;;;;;37.53;18.80;;;2.90;99.90;;;;;;5052779;28;20363;-55
2022/11/19 04:10:57;;;;;;;35.23;18.70;;;2.90;99.90;;;;;;5053028;28;20108;-53
2022/11/19 04:13:23;;;;;;;41.23;19.73;;;2.90;99.90;;;;;;5066191;22;20214;-52
2022/11/19 04:15:48;;;;;;;43.67;20.83;;;2.90;99.90;;;;;;5052257;28;20043;-52
2022/11/19 04:18:14;;;;;;;40.47;20.13;;;2.90;99.90;;;;;;5052614;28;20061;-53
2022/11/19 04:20:42;;;;;;;40.53;21.73;;;2.90;99.90;;;;;;5052513;28;20032;-53
2022/11/19 04:23:08;;;;;;;39.10;20.20;;;2.90;99.90;;;;;;5052766;28;20068;-52
2022/11/19 04:25:34;;;;;;;39.50;20.23;;;2.90;99.90;;;;;;5052619;28;20438;-52
2022/11/19 04:27:59;;;;;;;38.37;19.70;;;2.90;99.90;;;;;;5052282;28;20037;-52
2022/11/19 04:30:25;;;;;;;43.63;21.87;;;2.80;99.90;;;;;;5052840;28;20041;-55
2022/11/19 04:32:51;;;;;;;39.67;20.97;;;2.80;99.90;;;;;;5052497;28;20033;-54
2022/11/19 04:35:20;;;;;;;45.70;22.47;;;2.80;99.90;;;;;;5052398;28;20017;-52
2022/11/19 04:37:47;;;;;;;40.97;20.52;;;2.70;99.90;;;;;;5051618;28;20025;-52
2022/11/19 04:40:13;;;;;;;46.93;22.43;;;2.70;99.90;;;;;;5052713;28;20029;-51
2022/11/19 04:42:39;;;;;;;44.70;22.57;;;2.70;99.90;;;;;;5052324;28;20290;-50
2022/11/19 04:45:05;;;;;;;42.47;23.63;;;2.70;99.90;;;;;;5052188;28;20508;-53
2022/11/19 04:47:31;;;;;;;44.30;22.27;;;2.70;99.90;;;;;;5051991;28;20104;-53
2022/11/19 04:49:57;;;;;;;43.23;21.80;;;2.60;99.90;;;;;;5051958;28;20065;-52
2022/11/19 04:52:22;;;;;;;45.37;23.17;;;2.60;99.90;;;;;;5052237;28;20033;-49
2022/11/19 04:54:48;;;;;;;49.17;22.53;;;2.60;99.90;;;;;;5051968;28;20446;-52
2022/11/19 04:57:14;;;;;;;45.33;23.10;;;2.60;99.90;;;;;;5051711;28;20067;-51
2022/11/19 04:59:39;;;;;;;44.43;22.80;;;2.50;99.90;;;;;;5051770;28;20039;-52
2022/11/19 05:02:05;;;;;;;46.23;24.03;;;2.50;99.90;;;;;;5051936;28;20037;-51
2022/11/19 05:04:31;;;;;;;44.60;22.20;;;2.50;99.90;;;;;;5051811;28;20120;-49
2022/11/19 05:06:56;;;;;;;46.40;22.60;;;2.50;99.90;;;;;;5051756;28;20033;-50
2022/11/19 05:09:22;;;;;;;43.70;21.23;;;2.50;99.90;;;;;;5051565;28;20045;-47
2022/11/19 05:11:48;;;;;;;41.97;22.17;;;2.50;99.90;;;;;;5051624;28;20504;-51
2022/11/19 05:14:13;;;;;;;45.90;23.60;;;2.50;99.90;;;;;;5051604;28;20060;-50
2022/11/19 05:16:39;;;;;;;46.37;22.27;;;2.50;99.90;;;;;;5051505;28;20526;-52
2022/11/19 05:19:05;;;;;;;44.37;21.63;;;2.50;99.90;;;;;;5051365;28;20033;-51
2022/11/19 05:21:30;;;;;;;43.00;21.93;;;2.50;99.90;;;;;;5051578;28;20033;-50
2022/11/19 05:23:56;;;;;;;43.23;22.40;;;2.50;99.90;;;;;;5051818;28;20033;-52
2022/11/19 05:26:23;;;;;;;40.00;20.73;;;2.50;99.90;;;;;;5051171;28;20508;-50
2022/11/19 05:28:49;;;;;;;42.00;20.43;;;2.50;99.90;;;;;;5051132;28;20115;-50
2022/11/19 05:31:14;;;;;;;41.20;21.57;;;2.60;99.90;;;;;;5051626;28;20158;-53
2022/11/19 05:33:40;;;;;;;36.60;20.40;;;2.60;99.90;;;;;;5051362;28;20025;-51
2022/11/19 05:36:06;;;;;;;40.13;19.83;;;2.60;99.90;;;;;;5051329;28;20119;-50
2022/11/19 05:38:32;;;;;;;37.43;19.73;;;2.60;99.90;;;;;;5050815;28;20032;-51
2022/11/19 05:40:57;;;;;;;37.70;19.70;;;2.70;99.90;;;;;;5051104;28;20436;-53
2022/11/19 05:43:23;;;;;;;35.07;18.93;;;2.70;99.90;;;;;;5051062;28;20029;-53
2022/11/19 05:45:49;;;;;;;35.67;19.27;;;2.70;99.90;;;;;;5051083;28;20025;-54
2022/11/19 05:48:14;;;;;;;34.43;19.13;;;2.70;99.90;;;;;;5051035;28;20242;-52
2022/11/19 05:50:43;;;;;;;38.60;20.00;;;2.60;99.90;;;;;;5049960;28;20032;-53
2022/11/19 05:53:09;;;;;;;36.85;19.42;;;2.60;99.90;;;;;;5050914;28;20460;-51
2022/11/19 05:55:35;;;;;;;34.73;19.93;;;2.60;99.90;;;;;;5050846;28;20121;-53
2022/11/19 05:58:00;;;;;;;38.03;20.93;;;2.60;99.90;;;;;;5050812;28;20115;-52
2022/11/19 06:00:26;;;;;;;37.13;19.93;;;2.50;99.90;;;;;;5050803;28;20033;-53
2022/11/19 06:02:52;;;;;;;35.83;19.93;;;2.50;99.90;;;;;;5051203;28;20466;-51
2022/11/19 06:05:18;;;;;;;39.67;20.47;;;2.50;99.90;;;;;;5050904;28;20037;-52
2022/11/19 06:07:44;;;;;;;42.47;21.47;;;2.50;99.90;;;;;;5050443;28;20083;-52
2022/11/19 06:10:10;;;;;;;39.77;20.60;;;2.50;99.90;;;;;;5050322;28;20064;-48
2022/11/19 06:12:35;;;;;;;36.80;19.77;;;2.40;99.90;;;;;;5050611;28;20075;-51
2022/11/19 06:15:01;;;;;;;39.90;20.27;;;2.40;99.90;;;;;;5050418;28;20037;-53
2022/11/19 06:17:27;;;;;;;42.97;20.33;;;2.40;99.90;;;;;;5050428;28;20037;-50
2022/11/19 06:19:53;;;;;;;40.20;20.67;;;2.40;99.90;;;;;;5050361;28;20033;-54
2022/11/19 06:22:19;;;;;;;36.50;19.70;;;2.40;99.90;;;;;;5050593;28;20025;-50
2022/11/19 06:24:44;;;;;;;39.73;20.37;;;2.40;99.90;;;;;;5050293;28;20532;-50
2022/11/19 06:27:10;;;;;;;40.17;20.87;;;2.40;99.90;;;;;;5050482;28;20025;-52
2022/11/19 06:29:36;;;;;;;39.27;21.30;;;2.40;99.90;;;;;;5050529;28;20021;-52
2022/11/19 06:32:01;;;;;;;42.97;21.43;;;2.40;99.90;;;;;;5050666;28;20036;-52
2022/11/19 06:34:27;;;;;;;40.90;21.40;;;2.40;99.90;;;;;;5050261;28;20052;-53
2022/11/19 06:36:53;;;;;;;42.33;21.57;;;2.30;99.90;;;;;;5050159;28;20112;-51
2022/11/19 06:39:18;;;;;;;45.00;21.53;;;2.30;99.90;;;;;;5050056;28;20072;-51
2022/11/19 06:41:47;;;;;;;42.50;21.80;;;2.20;99.90;;;;;;5050360;28;20162;-54
2022/11/19 06:44:13;;;;;;;41.43;21.63;;;2.20;99.90;;;;;;5050314;28;20036;-50
2022/11/19 06:46:38;;;;;;;45.53;21.50;;;2.20;99.90;;;;;;5050033;28;20024;-53
2022/11/19 06:49:05;;;;;;;44.20;21.80;;;2.20;99.90;;;;;;5050152;28;20041;-51
2022/11/19 06:51:31;;;;;;;49.40;23.83;;;2.10;99.90;;;;;;5050201;28;20386;-51
2022/11/19 06:53:57;;;;;;;44.53;21.83;;;2.10;99.90;;;;;;5049986;28;20029;-52
2022/11/19 06:56:23;;;;;;;42.67;22.47;;;2.00;99.90;;;;;;5050155;28;20363;-53
2022/11/19 06:58:50;;;;;;;46.07;21.80;;;2.00;99.90;;;;;;5049955;28;20025;-51
2022/11/19 07:01:16;;;;;;;45.70;22.00;;;2.00;99.90;;;;;;5051321;28;20424;-50
2022/11/19 07:03:41;;;;;;;41.70;21.13;;;2.00;99.90;;;;;;5054132;28;20033;-51
2022/11/19 07:06:07;;;;;;;44.07;21.83;;;2.10;99.90;;;;;;5053956;28;20091;-52
2022/11/19 07:08:35;;;;;;;42.47;21.70;;;2.10;99.90;;;;;;5053440;28;20120;-51
2022/11/19 07:11:24;;;;;;;42.87;21.53;;;2.00;99.90;;;;;;5053882;28;20047;-54
2022/11/19 07:13:56;;;;;;;42.50;21.07;;;2.10;99.90;;;;;;5053623;28;20033;-52
2022/11/19 07:16:22;;;;;;;41.23;19.37;;;2.00;99.90;;;;;;5053077;28;20477;-51
2022/11/19 07:18:47;;;;;;;41.27;20.90;;;2.10;99.90;;;;;;5053712;28;20036;-51
2022/11/19 07:21:13;;;;;;;39.90;19.60;;;2.10;99.90;;;;;;5053826;28;20033;-50
2022/11/19 07:23:39;;;;;;;40.50;19.73;;;2.10;99.90;;;;;;5053846;28;20196;-51
2022/11/19 07:26:05;;;;;;;43.63;19.30;;;2.10;99.90;;;;;;5053792;28;20444;-50
2022/11/19 07:28:30;;;;;;;42.23;20.87;;;2.10;99.90;;;;;;5053375;28;20049;-49
2022/11/19 07:30:56;;;;;;;40.17;19.77;;;2.10;99.90;;;;;;5053502;28;20492;-52
2022/11/19 07:33:22;;;;;;;36.20;18.43;;;2.10;99.90;;;;;;5053579;28;20542;-52
2022/11/19 07:35:47;;;;;;;40.03;18.67;;;2.10;99.90;;;;;;5053604;28;20021;-50
2022/11/19 07:38:13;;;;;;;39.03;18.63;;;2.10;99.90;;;;;;5053279;28;20025;-52
2022/11/19 07:40:39;;;;;;;38.77;18.93;;;2.10;99.90;;;;;;5053306;28;20029;-52
2022/11/19 07:43:04;;;;;;;37.50;19.17;;;2.10;99.90;;;;;;5053250;28;20036;-50
2022/11/19 07:45:32;;;;;;;35.93;18.30;;;2.10;99.90;;;;;;5053552;28;20055;-54
2022/11/19 07:47:58;;;;;;;35.13;17.07;;;2.10;99.90;;;;;;5051845;28;20102;-52
2022/11/19 07:50:24;;;;;;;39.97;19.23;;;2.20;99.90;;;;;;5053232;28;20184;-51
2022/11/19 07:52:49;;;;;;;37.73;18.17;;;2.10;99.90;;;;;;5053210;28;20366;-54
2022/11/19 07:55:15;;;;;;;39.17;19.17;;;2.10;99.90;;;;;;5053101;28;20033;-53
2022/11/19 07:57:41;;;;;;;35.73;18.23;;;2.10;99.90;;;;;;5052985;28;20032;-52
2022/11/19 08:00:07;;;;;;;33.63;18.07;;;2.10;99.90;;;;;;5052854;28;20040;-52
2022/11/19 08:02:38;;;;;;;34.83;17.70;;;2.10;99.90;;;;;;5053373;28;20449;-50
2022/11/19 08:05:04;;;;;;;34.10;17.97;;;2.10;99.90;;;;;;5052970;28;20060;-53
2022/11/19 08:07:30;;;;;;;34.00;17.83;;;2.10;99.90;;;;;;5052823;28;20036;-50
2022/11/19 08:09:55;;;;;;;36.03;17.13;;;2.10;99.90;;;;;;5052664;28;20090;-54
2022/11/19 08:12:21;;;;;;;33.33;17.17;;;2.10;99.90;;;;;;5052185;28;20037;-53
2022/11/19 08:14:47;;;;;;;34.03;17.03;;;2.10;99.90;;;;;;5052293;28;20029;-51
2022/11/19 08:19:57;;;;;;;31.27;17.13;;;2.10;99.90;;;;;;5052672;28;20090;-54
2022/11/19 08:22:23;;;;;;;36.53;16.17;;;2.10;99.90;;;;;;5052830;28;20040;-51
2022/11/19 08:24:49;;;;;;;31.27;16.60;;;2.10;99.90;;;;;;5052819;28;20443;-54
2022/11/19 08:27:16;;;;;;;36.67;17.83;;;2.10;99.90;;;;;;5052129;28;20033;-53
2022/11/19 08:29:41;;;;;;;34.17;17.07;;;2.10;99.90;;;;;;5052626;28;20052;-53
2022/11/19 08:32:07;;;;;;;31.30;16.63;;;2.10;99.90;;;;;;5052444;28;20478;-54
2022/11/19 08:34:33;;;;;;;34.57;17.73;;;2.00;99.90;;;;;;5052427;28;20033;-55
2022/11/19 08:36:58;;;;;;;34.17;17.17;;;2.00;99.90;;;;;;5052280;28;20029;-53
2022/11/19 08:39:24;;;;;;;31.27;16.57;;;2.00;99.90;;;;;;5052099;28;20032;-55
2022/11/19 08:44:54;;;;;;;34.30;18.50;;;2.00;99.90;;;;;;4971071;28;20027;-55
2022/11/19 08:47:20;;;;;;;34.97;16.70;;;2.00;99.90;;;;;;4970899;28;20034;-53
2022/11/19 08:49:46;;;;;;;32.13;17.27;;;1.90;99.90;;;;;;5008333;28;20044;-50
2022/11/19 08:52:13;;;;;;;35.17;17.33;;;1.90;99.90;;;;;;5051959;28;20086;-49
2022/11/19 08:54:38;;;;;;;35.13;17.30;;;1.90;99.90;;;;;;5052252;28;20032;-54
2022/11/19 08:57:04;;;;;;;36.40;18.03;;;1.80;99.90;;;;;;5051857;28;20025;-55
2022/11/19 08:59:30;;;;;;;31.30;16.17;;;1.90;99.90;;;;;;5051985;28;20025;-54
2022/11/19 09:01:55;;;;;;;33.80;17.33;;;1.80;99.90;;;;;;5052404;28;20025;-53
2022/11/19 09:04:21;;;;;;;31.90;16.67;;;1.80;99.90;;;;;;5051764;28;20037;-53
2022/11/19 09:06:47;;;;;;;30.50;16.60;;;1.80;99.90;;;;;;5051733;28;20040;-54
2022/11/19 09:09:13;;;;;;;33.13;17.03;;;1.80;99.90;;;;;;5051668;28;20111;-55
2022/11/19 09:11:38;;;;;;;32.13;17.30;;;1.70;99.90;;;;;;5051774;28;20025;-53
2022/11/19 09:14:04;;;;;;;31.23;17.00;;;1.60;99.90;;;;;;5051539;28;20417;-53
2022/11/19 09:16:30;;;;;;;31.67;16.57;;;1.50;99.90;;;;;;5051628;28;20266;-52
2022/11/19 09:18:55;;;;;;;36.97;17.37;;;1.50;99.90;;;;;;5051465;28;20537;-54
2022/11/19 09:21:21;;;;;;;30.83;16.43;;;1.40;99.90;;;;;;5051610;28;20465;-53
2022/11/19 09:23:47;;;;;;;32.30;16.03;;;1.40;99.90;;;;;;5051614;28;20040;-54
2022/11/19 09:26:14;;;;;;;33.70;17.23;;;1.30;99.90;;;;;;5051499;28;20404;-52
2022/11/19 09:28:41;;;;;;;29.87;16.37;;;1.30;99.90;;;;;;5051147;28;20064;-52
2022/11/19 09:31:10;;;;;;;29.50;16.30;;;1.30;99.90;;;;;;5051434;28;20036;-51
2022/11/19 09:33:37;;;;;;;;;;;1.30;99.90;;;;;;5051659;28;20036;-50
2022/11/19 09:36:03;;;;;;;30.70;15.90;;;1.20;99.90;;;;;;5051617;28;19916;-53
2022/11/19 09:38:33;;;;;;;29.30;14.77;;;1.30;99.90;;;;;;5051026;28;20029;-52
2022/11/19 09:41:19;;;;;;;31.53;16.27;;;1.30;99.90;;;;;;5051434;28;20060;-53
2022/11/19 09:43:52;;;;;;;30.73;15.83;;;1.30;99.90;;;;;;5051228;28;20025;-53
2022/11/19 09:46:51;;;;;;;32.27;16.53;;;1.30;99.90;;;;;;5050980;28;20091;-49
2022/11/19 09:49:26;;;;;;;31.45;15.43;;;1.30;99.90;;;;;;5051029;28;20048;-51
2022/11/19 09:52:00;;;;;;;29.80;15.63;;;1.40;99.90;;;;;;5051136;28;20079;-50
2022/11/19 09:54:26;;;;;;;28.43;15.00;;;1.40;99.90;;;;;;5050801;28;20041;-53
2022/11/19 09:56:54;;;;;;;31.60;15.57;;;1.40;99.90;;;;;;5050787;28;20108;-53
2022/11/19 09:59:37;;;;;;;30.70;15.57;;;1.30;99.90;;;;;;5050677;28;20067;-55
2022/11/19 10:02:14;;;;;;;30.33;15.37;;;1.20;99.90;;;;;;5050933;28;20029;-53
2022/11/19 10:04:40;;;;;;;30.17;16.10;;;1.20;99.90;;;;;;5050612;28;20033;-52
2022/11/19 10:07:18;;;;;;;31.83;16.03;;;1.20;99.90;;;;;;5050589;28;20071;-52
2022/11/19 10:09:49;;;;;;;28.50;15.17;;;1.20;99.90;;;;;;5050584;28;20481;-51
2022/11/19 10:12:39;;;;;;;28.97;15.37;;;1.30;99.90;;;;;;5050657;28;20119;-54
2022/11/19 10:15:36;;;;;;;27.23;15.03;;;1.40;99.90;;;;;;5063165;22;20047;-55
2022/11/19 10:18:25;;;;;;;25.90;13.90;;;1.40;99.90;;;;;;5049918;28;20529;-54
2022/11/19 10:20:59;;;;;;;28.15;14.70;;;1.50;99.90;;;;;;5050440;28;20036;-54
2022/11/19 10:23:31;;;;;;;24.90;14.20;;;1.50;99.90;;;;;;5050543;28;20558;-56
2022/11/19 10:26:03;;;;;;;25.30;13.87;;;1.60;99.90;;;;;;5050680;28;20486;-53
2022/11/19 10:28:33;;;;;;;25.17;13.93;;;1.60;99.90;;;;;;5050236;28;20048;-54
2022/11/19 10:31:15;;;;;;;27.63;13.87;;;1.60;99.90;;;;;;5050592;28;20040;-54
2022/11/19 10:33:52;;;;;;;28.83;14.20;;;1.60;99.90;;;;;;5050423;28;20052;-56
2022/11/19 10:36:30;;;;;;;24.20;13.87;;;1.50;99.90;;;;;;5050225;28;20021;-54
2022/11/19 10:39:06;;;;;;;22.87;12.57;;;1.50;99.90;;;;;;5050241;28;20120;-55
2022/11/19 10:41:56;;;;;;;25.27;13.30;;;1.60;99.90;;;;;;5050473;28;20108;-52
2022/11/19 10:44:39;;;;;;;27.00;13.93;;;1.50;99.90;;;;;;5050320;28;20044;-54
2022/11/19 10:47:29;;;;;;;24.67;13.37;;;1.60;99.90;;;;;;5050198;28;20040;-55
2022/11/19 10:49:54;;;;;;;25.13;14.20;;;1.60;99.90;;;;;;5050242;28;20033;-55
2022/11/19 10:52:23;;;;;;;24.17;13.87;;;1.60;99.90;;;;;;5050226;28;20036;-54
2022/11/19 10:54:53;;;;;;;27.70;15.03;;;1.70;99.90;;;;;;5050242;28;20029;-54
2022/11/19 10:57:20;;;;;;;26.57;14.77;;;1.70;99.90;;;;;;5050123;28;20017;-54
2022/11/19 10:59:50;;;;;;;27.50;15.33;;;1.70;99.90;;;;;;5049768;28;20032;-54
2022/11/19 11:02:36;;;;;;;30.00;15.18;;;1.60;99.90;;;;;;5050263;28;20112;-56
2022/11/19 11:05:14;;;;;;;26.73;14.27;;;1.70;99.90;;;;;;5050077;28;20044;-51
2022/11/19 11:07:49;;;;;;;26.13;13.23;;;1.90;99.90;;;;;;5050061;28;20500;-57
2022/11/19 11:10:34;;;;;;;23.83;13.13;;;1.90;99.90;;;;;;5049726;28;20028;-54
2022/11/19 11:16:46;;;;;;;25.35;14.20;;;2.20;99.90;;;;;;5049749;28;20115;-55
2022/11/19 11:19:16;;;;;;;26.87;14.87;;;2.40;99.90;;;;;;5049822;28;20439;-52
2022/11/19 11:21:42;;;;;;;23.67;13.33;;;2.60;99.90;;;;;;5050050;28;20021;-55
2022/11/19 11:24:10;;;;;;;23.67;13.50;;;2.70;99.90;;;;;;5050025;28;20100;-56
2022/11/19 11:26:36;;;;;;;23.07;12.63;;;2.70;99.90;;;;;;5049788;28;20115;-55
2022/11/19 11:29:26;;;;;;;22.67;13.07;;;2.70;99.90;;;;;;5050165;28;20040;-55
2022/11/19 11:31:52;;;;;;;21.08;13.07;;;2.70;99.90;;;;;;5050125;28;20044;-53
2022/11/19 11:34:37;;;;;;;21.47;12.47;;;2.90;99.90;;;;;;5049683;28;20112;-52
2022/11/19 11:37:07;;;;;;;21.07;13.00;;;2.90;99.90;;;;;;5049697;28;20028;-57
2022/11/19 11:39:35;;;;;;;;;;;2.80;99.90;;;;;;5050271;28;20060;-53
2022/11/19 11:42:01;;;;;;;24.40;14.13;;;2.80;99.90;;;;;;5049842;28;19909;-53
2022/11/19 11:44:30;;;;;;;24.43;14.30;;;2.70;99.90;;;;;;5049845;28;20029;-54
2022/11/19 11:47:02;;;;;;;23.13;13.68;;;2.70;99.90;;;;;;5049723;28;20076;-54
2022/11/19 11:49:40;;;;;;;26.57;14.33;;;2.80;99.90;;;;;;5052291;28;20094;-53
2022/11/19 11:52:19;;;;;;;23.57;13.80;;;2.80;99.90;;;;;;5053486;28;20388;-54
2022/11/19 11:55:03;;;;;;;24.08;13.13;;;2.80;99.90;;;;;;5053510;28;20025;-54
2022/11/19 11:57:30;;;;;;;22.63;12.80;;;2.90;99.90;;;;;;5053107;28;20133;-54
2022/11/19 11:59:56;;;;;;;20.67;12.67;;;2.90;99.90;;;;;;5053433;28;20024;-54
2022/11/19 12:02:31;;;;;;;21.07;12.63;;;2.90;99.90;;;;;;5053109;28;20063;-57
2022/11/19 12:05:05;;;;;;;20.90;12.33;;;3.00;99.90;;;;;;5052965;28;20044;-55
2022/11/19 12:07:54;;;;;;;22.03;12.50;;;3.00;99.90;;;;;;5052871;28;20485;-55
2022/11/19 12:10:42;;;;;;;19.73;12.00;;;3.00;99.90;;;;;;5052803;28;20037;-54
2022/11/19 12:13:31;;;;;;;21.50;12.37;;;3.00;99.90;;;;;;5052865;28;20064;-54
2022/11/19 12:16:20;;;;;;;20.53;12.10;;;3.00;99.90;;;;;;5052959;28;20108;-55
2022/11/19 12:19:14;;;;;;;19.50;11.97;;;3.00;99.90;;;;;;5053065;28;20025;-53
2022/11/19 12:21:51;;;;;;;21.73;12.20;;;3.00;99.90;;;;;;5052781;28;20032;-55
2022/11/19 12:24:22;;;;;;;21.57;12.47;;;3.00;99.90;;;;;;5052676;28;20036;-55
2022/11/19 12:27:14;;;;;;;23.20;12.07;;;2.90;99.90;;;;;;5052622;28;20024;-54
2022/11/19 12:30:04;;;;;;;21.13;12.03;;;2.90;99.90;;;;;;5052409;28;20037;-54
2022/11/19 12:32:48;;;;;;;21.37;12.67;;;3.00;99.90;;;;;;5052426;28;20064;-54
2022/11/19 12:35:19;;;;;;;19.97;11.60;;;2.90;99.90;;;;;;5052473;28;20056;-53
2022/11/19 12:38:20;;;;;;;19.33;11.50;;;2.90;99.90;;;;;;5052188;28;20386;-53
2022/11/19 12:41:03;;;;;;;17.83;10.73;;;2.90;99.90;;;;;;5052170;28;20025;-54
2022/11/19 12:43:50;;;;;;;18.23;10.43;;;2.90;99.90;;;;;;5052229;28;20110;-56
2022/11/19 12:46:33;;;;;;;18.10;10.63;;;2.80;99.90;;;;;;5052440;28;20037;-54
2022/11/19 12:49:25;;;;;;;15.53;9.67;;;2.90;99.90;;;;;;5052230;28;20052;-54
2022/11/19 12:52:41;;;;;;;18.43;10.07;;;3.00;99.90;;;;;;5052223;28;20440;-55
2022/11/19 12:55:25;;;;;;;16.90;10.30;;;3.10;99.90;;;;;;5052150;28;20427;-55
2022/11/19 12:58:05;;;;;;;17.20;10.27;;;3.20;99.90;;;;;;5052340;28;20033;-54
2022/11/19 13:00:34;;;;;;;16.03;9.53;;;3.20;99.90;;;;;;5051301;28;20056;-55
2022/11/19 13:03:13;;;;;;;19.05;10.00;;;3.20;99.90;;;;;;5052064;28;20098;-54
2022/11/19 13:06:01;;;;;;;17.30;10.38;;;3.20;99.90;;;;;;5052048;28;20041;-52
2022/11/19 13:08:46;;;;;;;16.43;9.53;;;3.20;99.90;;;;;;5051687;28;20029;-54
2022/11/19 13:11:28;;;;;;;16.77;10.40;;;3.20;99.90;;;;;;5051929;28;20029;-53
2022/11/19 13:14:00;;;;;;;15.40;9.47;;;3.30;99.90;;;;;;5051565;28;20401;-55
2022/11/19 13:16:29;;;;;;;18.07;10.70;;;3.30;99.90;;;;;;5051549;28;20028;-54
2022/11/19 13:19:24;;;;;;;18.73;10.07;;;3.30;99.90;;;;;;5051574;28;20025;-51
2022/11/19 13:22:17;;;;;;;17.77;9.40;;;3.20;99.90;;;;;;5051471;28;20033;-54
2022/11/19 13:25:23;;;;;;;18.03;10.33;;;3.20;99.90;;;;;;5051675;28;20159;-54